Terminal Aerodrome Forecast
Issued by NWS Sterling, VA

Current Version | Previous Version | Graphics & Text | Print | Product List | Glossary On
Versions: 1 2 3 4 5 6 7 8 9 10 11 12 13 14 15 16 17 18
000
FTUS41 KLWX 271135
TAFMRB
TAF
KMRB 271135Z 2712/2812 00000KT 4SM BR FEW006
     FM271300 00000KT 6SM BR SKC
     FM271600 VRB03KT P6SM VCTS SCT060CB
     FM280000 VRB03KT P6SM BKN080
     FM280400 VRB03KT P6SM FEW050 SCT200
     FM280700 00000KT 3SM BR FEW050 SCT200
     FM281000 00000KT 2SM BR FEW050 SCT250=

USA.gov is the U.S. government's official web portal to all federal, state and local government web resources and services.